createdAt,value
2018-11-10T21:27:52.347Z,36.13
2018-11-10T21:30:21.814Z,35.80
2018-11-10T21:32:51.118Z,35.80
2018-11-10T21:35:20.403Z,37.03
2018-11-10T21:37:49.787Z,40.43
2018-11-10T21:40:19.935Z,44.70
2018-11-10T21:42:49.272Z,48.77
2018-11-10T21:45:18.886Z,51.63
2018-11-10T21:47:48.078Z,49.97
2018-11-10T21:50:18.520Z,51.43
2018-11-10T21:52:47.732Z,52.50
2018-11-10T21:55:18.158Z,52.43
2018-11-10T21:57:48.143Z,52.83
2018-11-10T22:00:18.800Z,54.40
2018-11-10T22:02:48.189Z,53.70
2018-11-10T22:05:17.508Z,54.53
2018-11-10T22:07:46.756Z,55.50
2018-11-10T22:10:17.094Z,55.57
2018-11-10T22:12:46.933Z,54.17
2018-11-10T22:15:22.504Z,57.40
2018-11-10T22:17:51.694Z,54.83
2018-11-10T22:20:22.863Z,57.23
2018-11-10T22:22:52.182Z,56.57
2018-11-10T22:25:21.330Z,56.87
2018-11-10T22:27:51.992Z,56.53
2018-11-10T22:30:21.837Z,56.90
2018-11-10T22:32:51.437Z,60.27
2018-11-10T22:35:20.765Z,59.97
2018-11-10T22:37:49.890Z,57.17
2018-11-10T22:40:20.305Z,57.13
2018-11-10T22:42:49.472Z,56.87
2018-11-10T22:45:19.968Z,57.40
2018-11-10T22:47:49.306Z,52.97
2018-11-10T22:50:19.855Z,51.83
2018-11-10T22:52:49.697Z,51.97
2018-11-10T22:55:19.650Z,51.57
2018-11-10T22:57:49.467Z,51.40
2018-11-10T23:00:22.466Z,51.90
2018-11-10T23:02:53.624Z,50.67
2018-11-10T23:05:23.973Z,48.67
2018-11-10T23:07:53.842Z,49.57
2018-11-10T23:10:23.882Z,49.37
2018-11-10T23:12:54.541Z,47.47
2018-11-10T23:15:24.560Z,47.03
2018-11-10T23:17:54.523Z,47.70
2018-11-10T23:20:24.321Z,49.40
2018-11-10T23:22:54.323Z,50.70
2018-11-10T23:25:24.153Z,50.17
2018-11-10T23:27:53.957Z,48.60
2018-11-10T23:30:24.391Z,49.33
2018-11-10T23:32:54.212Z,49.07
2018-11-10T23:35:24.214Z,48.10
2018-11-10T23:37:54.023Z,47.67
2018-11-10T23:40:23.823Z,47.13
2018-11-10T23:42:53.676Z,46.73
2018-11-10T23:45:23.471Z,46.60
2018-11-10T23:47:53.451Z,44.43
2018-11-10T23:50:23.381Z,45.40
2018-11-10T23:52:53.238Z,44.50
2018-11-10T23:55:23.302Z,43.90
2018-11-10T23:57:53.259Z,43.97
